createdAt,value
2019-05-12T00:00:35.336Z,7.29
2019-05-12T00:03:08.251Z,7.28
2019-05-12T00:05:38.318Z,7.25
2019-05-12T00:08:08.465Z,7.27
2019-05-12T00:10:38.713Z,7.21
2019-05-12T00:13:09.493Z,7.22
2019-05-12T00:15:39.498Z,7.20
2019-05-12T00:18:09.426Z,7.20
2019-05-12T00:20:41.683Z,7.20
2019-05-12T00:23:24.057Z,7.19
2019-05-12T00:25:43.450Z,7.23
2019-05-12T00:28:13.704Z,7.22
2019-05-12T00:30:48.741Z,7.19
2019-05-12T00:33:19.397Z,7.20
2019-05-12T00:35:51.988Z,7.14
2019-05-12T00:38:22.292Z,7.18
2019-05-12T00:40:52.164Z,7.18
2019-05-12T00:43:22.538Z,7.22
2019-05-12T00:45:52.269Z,7.25
2019-05-12T00:48:22.421Z,7.32
2019-05-12T00:50:52.023Z,7.40
2019-05-12T00:53:34.827Z,7.33
2019-05-12T00:55:53.562Z,7.35
2019-05-12T00:58:23.140Z,7.32
2019-05-12T01:00:52.512Z,7.29
2019-05-12T01:03:22.079Z,7.30
2019-05-12T01:05:52.395Z,7.34
2019-05-12T01:08:22.005Z,7.30
2019-05-12T01:10:51.545Z,7.39
2019-05-12T01:13:21.551Z,7.44
2019-05-12T01:15:51.593Z,7.52
2019-05-12T01:18:21.469Z,7.40
2019-05-12T01:20:51.559Z,7.40
2019-05-12T01:23:23.536Z,7.32
2019-05-12T01:25:53.405Z,7.22
2019-05-12T01:28:25.186Z,7.20
2019-05-12T01:31:00.055Z,7.19
2019-05-12T01:33:30.506Z,7.14
2019-05-12T01:36:00.290Z,7.10
2019-05-12T01:38:30.261Z,7.14
2019-05-12T01:40:59.888Z,7.15
2019-05-12T01:43:29.439Z,7.15
2019-05-12T01:45:59.970Z,7.15
2019-05-12T01:48:29.812Z,7.19
2019-05-12T01:51:05.635Z,7.27
2019-05-12T01:53:48.161Z,7.24
2019-05-12T01:56:19.588Z,7.25
2019-05-12T01:58:49.532Z,7.24
2019-05-12T02:01:20.308Z,7.24
2019-05-12T02:03:50.790Z,7.28
2019-05-12T02:06:21.349Z,7.27
2019-05-12T02:08:58.080Z,7.31
2019-05-12T02:11:33.841Z,7.27
2019-05-12T02:14:15.584Z,7.29
2019-05-12T02:16:47.959Z,7.27
2019-05-12T02:19:17.950Z,7.25
2019-05-12T02:21:48.876Z,7.28
2019-05-12T02:24:26.601Z,7.36
2019-05-12T02:26:50.079Z,7.31
2019-05-12T02:29:19.730Z,7.28
2019-05-12T02:31:50.146Z,7.33
2019-05-12T02:34:19.874Z,7.41
2019-05-12T02:36:49.301Z,7.42
2019-05-12T02:39:24.727Z,7.43
2019-05-12T02:41:55.239Z,7.46
2019-05-12T02:44:25.018Z,7.39
2019-05-12T02:46:55.195Z,7.39
2019-05-12T02:49:25.056Z,7.33
2019-05-12T02:51:57.710Z,7.34
2019-05-12T02:54:49.579Z,7.33
2019-05-12T02:56:59.727Z,7.33
2019-05-12T02:59:34.636Z,7.37
2019-05-12T03:02:06.153Z,7.37
2019-05-12T03:04:38.604Z,7.36
2019-05-12T03:07:15.304Z,7.33
2019-05-12T03:09:45.084Z,7.26
2019-05-12T03:12:15.129Z,7.17
2019-05-12T03:14:44.945Z,7.10
2019-05-12T03:17:18.151Z,7.12
2019-05-12T03:19:48.021Z,7.12
2019-05-12T03:22:25.301Z,7.05
2019-05-12T03:25:07.819Z,7.04
2019-05-12T03:27:30.844Z,6.93
2019-05-12T03:30:00.747Z,6.94
2019-05-12T03:32:30.234Z,6.98
2019-05-12T03:35:08.099Z,6.95
2019-05-12T03:37:35.375Z,6.94
2019-05-12T03:40:06.085Z,6.96
2019-05-12T03:42:35.723Z,6.83
2019-05-12T03:45:08.613Z,6.76
2019-05-12T03:47:37.909Z,6.75
2019-05-12T03:50:07.910Z,6.75
2019-05-12T03:52:37.370Z,6.75
2019-05-12T03:55:30.890Z,6.67
2019-05-12T03:57:45.043Z,6.60
2019-05-12T04:00:16.120Z,6.55
2019-05-12T04:02:45.810Z,6.50
2019-05-12T04:05:15.871Z,6.44
2019-05-12T04:07:45.670Z,6.36
2019-05-12T04:10:16.044Z,6.35
2019-05-12T04:12:46.121Z,6.33
2019-05-12T04:15:15.899Z,6.32
2019-05-12T04:17:46.369Z,6.34
2019-05-12T04:20:16.312Z,6.34
2019-05-12T04:22:45.956Z,6.39
2019-05-12T04:25:15.661Z,6.34
2019-05-12T04:27:47.361Z,6.42
2019-05-12T04:30:17.576Z,6.42
2019-05-12T04:32:47.377Z,6.46
2019-05-12T04:35:17.645Z,6.54
2019-05-12T04:37:47.592Z,6.57
2019-05-12T04:40:20.744Z,6.55
2019-05-12T04:42:50.263Z,6.63
2019-05-12T04:45:21.474Z,6.57
2019-05-12T04:47:55.304Z,6.60
2019-05-12T04:50:34.892Z,6.58
2019-05-12T04:53:08.277Z,6.60
2019-05-12T04:55:45.718Z,6.48
2019-05-12T04:58:18.469Z,6.53
2019-05-12T05:00:47.954Z,6.56
2019-05-12T05:03:18.775Z,6.53
2019-05-12T05:05:54.747Z,6.51
2019-05-12T05:15:47.201Z,6.49
2019-05-12T05:18:20.305Z,6.52
2019-05-12T05:20:50.048Z,6.53
2019-05-12T05:23:21.574Z,6.52
2019-05-12T05:25:53.949Z,6.60
2019-05-12T05:28:25.473Z,6.60
2019-05-12T05:30:56.906Z,6.65
2019-05-12T05:33:28.750Z,6.67
2019-05-12T05:36:03.461Z,6.72
2019-05-12T05:38:36.245Z,6.79
2019-05-12T05:41:10.385Z,6.95
2019-05-12T05:43:43.913Z,6.80
2019-05-12T05:46:14.793Z,6.81
2019-05-12T05:48:47.366Z,6.83
2019-05-12T05:51:18.918Z,6.87
2019-05-12T05:53:51.944Z,6.92
2019-05-12T05:56:38.895Z,6.94
2019-05-12T05:58:58.000Z,7.21
2019-05-12T06:01:27.739Z,6.88
2019-05-12T06:03:58.367Z,6.83
2019-05-12T06:06:34.184Z,6.91
2019-05-12T06:09:10.039Z,7.06
2019-05-12T06:11:43.615Z,7.04
2019-05-12T06:14:16.359Z,7.12
2019-05-12T06:16:46.331Z,7.09
2019-05-12T06:19:23.485Z,7.02
2019-05-12T06:21:57.726Z,7.13
2019-05-12T06:24:28.175Z,7.23
2019-05-12T06:27:14.654Z,7.38
2019-05-12T06:29:35.014Z,7.39
2019-05-12T06:32:10.845Z,7.61
2019-05-12T06:34:38.081Z,7.94
2019-05-12T06:37:16.954Z,8.08
2019-05-12T06:39:44.451Z,7.75
2019-05-12T06:42:17.058Z,7.79
2019-05-12T06:44:48.989Z,7.93
2019-05-12T06:47:19.821Z,8.11
2019-05-12T06:49:56.443Z,8.33
2019-05-12T06:52:25.042Z,8.31
2019-05-12T06:54:56.836Z,8.70
2019-05-12T06:57:28.877Z,8.54
2019-05-12T06:59:57.773Z,8.62
2019-05-12T07:02:30.431Z,8.13
2019-05-12T07:04:59.585Z,8.15
2019-05-12T07:07:35.864Z,8.13
2019-05-12T07:10:10.443Z,8.32
2019-05-12T07:12:36.529Z,8.56
2019-05-12T07:15:09.782Z,8.83
2019-05-12T07:17:55.800Z,8.58
2019-05-12T07:24:35.045Z,8.61
2019-05-12T07:27:09.172Z,8.86
2019-05-12T07:29:38.541Z,9.00
2019-05-12T07:32:16.576Z,8.88
2019-05-12T07:34:43.747Z,9.20
2019-05-12T07:37:15.258Z,9.51
2019-05-12T07:39:49.462Z,9.35
2019-05-12T07:42:25.022Z,9.06
2019-05-12T07:44:54.726Z,8.97
2019-05-12T07:47:29.212Z,9.08
2019-05-12T07:49:57.256Z,9.34
2019-05-12T07:52:27.059Z,9.43
2019-05-12T07:54:56.737Z,9.48
2019-05-12T07:57:27.643Z,9.93
2019-05-12T07:59:57.988Z,9.96
2019-05-12T08:02:32.029Z,10.05
2019-05-12T08:05:00.305Z,10.35
2019-05-12T08:07:30.247Z,10.16
2019-05-12T08:09:59.797Z,10.24
2019-05-12T08:12:29.565Z,11.10
2019-05-12T08:15:05.422Z,12.54
2019-05-12T08:17:33.677Z,11.75
2019-05-12T08:20:06.638Z,11.82
2019-05-12T08:22:40.857Z,11.54
2019-05-12T08:25:13.215Z,11.37
2019-05-12T08:27:45.282Z,11.80
2019-05-12T08:30:14.024Z,11.95
2019-05-12T08:32:44.567Z,11.74
2019-05-12T08:35:25.419Z,10.93
2019-05-12T08:37:46.017Z,11.12
2019-05-12T08:40:17.304Z,11.38
2019-05-12T08:42:47.443Z,11.03
2019-05-12T08:45:25.100Z,11.09
2019-05-12T08:47:49.412Z,11.17
2019-05-12T08:50:23.178Z,11.19
2019-05-12T08:52:50.979Z,11.38
2019-05-12T08:55:25.194Z,11.44
2019-05-12T08:57:54.065Z,11.45
2019-05-12T09:00:46.533Z,11.76
2019-05-12T09:03:14.122Z,12.20
2019-05-12T09:05:44.510Z,11.73
2019-05-12T09:08:14.712Z,12.43
2019-05-12T09:10:45.153Z,12.36
2019-05-12T09:13:14.798Z,12.90
2019-05-12T09:15:44.265Z,12.60
2019-05-12T09:18:14.555Z,12.92
2019-05-12T09:20:51.351Z,13.42
2019-05-12T09:23:19.969Z,12.88
2019-05-12T09:25:53.055Z,12.63
2019-05-12T09:28:27.054Z,13.28
2019-05-12T09:30:58.578Z,13.51
2019-05-12T09:33:32.490Z,13.82
2019-05-12T09:36:04.326Z,14.10
2019-05-12T09:38:40.916Z,13.87
2019-05-12T09:41:15.748Z,13.33
2019-05-12T09:43:50.427Z,14.14
2019-05-12T09:46:19.554Z,13.99
2019-05-12T09:48:52.271Z,13.77
2019-05-12T09:51:23.341Z,13.65
2019-05-12T09:53:55.513Z,14.26
2019-05-12T09:56:24.744Z,14.36
2019-05-12T09:59:01.549Z,14.47
2019-05-12T10:01:29.154Z,13.39
2019-05-12T10:04:03.647Z,13.99
2019-05-12T10:06:34.038Z,14.11
2019-05-12T10:09:08.821Z,13.79
2019-05-12T10:11:40.365Z,13.96
2019-05-12T10:14:11.102Z,13.99
2019-05-12T10:16:45.585Z,13.68
2019-05-12T10:19:14.454Z,13.88
2019-05-12T10:21:49.097Z,14.31
2019-05-12T10:24:17.669Z,15.82
2019-05-12T10:26:50.541Z,14.27
2019-05-12T10:29:20.726Z,14.47
2019-05-12T10:31:49.715Z,14.79
2019-05-12T10:34:24.214Z,14.87
2019-05-12T10:36:55.290Z,14.68
2019-05-12T10:39:25.057Z,15.09
2019-05-12T10:41:58.178Z,14.87
2019-05-12T10:44:36.188Z,14.63
2019-05-12T10:58:25.003Z,15.14
2019-05-12T11:00:58.978Z,14.73
2019-05-12T11:03:27.068Z,15.29
2019-05-12T11:06:02.753Z,15.20
2019-05-12T11:08:33.171Z,15.70
2019-05-12T11:11:04.065Z,14.90
2019-05-12T11:13:35.149Z,14.43
2019-05-12T11:16:06.654Z,15.00
2019-05-12T11:18:38.215Z,14.66
2019-05-12T11:21:08.724Z,14.61
2019-05-12T11:23:43.572Z,15.14
2019-05-12T11:26:16.783Z,14.89
2019-05-12T11:28:48.194Z,15.61
2019-05-12T11:31:19.706Z,14.92
2019-05-12T11:33:50.496Z,14.91
2019-05-12T15:12:57.521Z,16.38
2019-05-12T15:14:32.607Z,15.83
2019-05-12T15:16:57.177Z,16.46
2019-05-12T15:19:30.710Z,16.59
2019-05-12T15:22:07.848Z,16.78
2019-05-12T15:24:33.653Z,16.54
2019-05-12T15:27:06.784Z,16.20
2019-05-12T15:29:36.447Z,16.90
2019-05-12T15:32:06.285Z,16.55
2019-05-12T15:34:35.978Z,16.49
2019-05-12T15:37:05.732Z,16.44
2019-05-12T15:39:36.537Z,16.34
2019-05-12T15:45:38.342Z,15.74
2019-05-12T15:48:10.882Z,15.82
2019-05-12T15:50:45.661Z,16.19
2019-05-12T15:53:22.097Z,15.95
2019-05-12T15:55:45.126Z,16.15
2019-05-12T15:58:15.217Z,16.15
2019-05-12T16:00:49.923Z,15.96
2019-05-12T16:03:19.975Z,16.02
2019-05-12T16:05:50.461Z,15.99
2019-05-12T16:08:27.918Z,15.90
2019-05-12T16:10:58.614Z,15.84
2019-05-12T16:13:30.682Z,15.60
2019-05-12T16:16:04.218Z,15.52
2019-05-12T16:18:31.424Z,15.58
2019-05-12T16:21:07.308Z,15.51
2019-05-12T16:23:37.692Z,15.54
2019-05-12T16:26:12.500Z,15.57
2019-05-12T16:28:40.613Z,15.94
2019-05-12T16:31:10.442Z,16.11
2019-05-12T16:33:40.869Z,15.75
2019-05-12T16:36:16.892Z,15.87
2019-05-12T16:38:50.228Z,16.21
2019-05-12T16:41:26.414Z,15.76
2019-05-12T16:43:54.887Z,15.73
2019-05-12T16:46:26.301Z,15.68
2019-05-12T16:48:57.603Z,15.93
2019-05-12T16:51:33.131Z,16.15
2019-05-12T16:54:03.799Z,16.07
2019-05-12T16:56:35.886Z,15.94
2019-05-12T16:59:15.660Z,15.97
2019-05-12T17:01:38.922Z,15.77
2019-05-12T17:04:09.002Z,16.03
2019-05-12T17:06:39.325Z,15.78
2019-05-12T17:09:09.530Z,15.84
2019-05-12T17:11:47.331Z,16.05
2019-05-12T17:14:12.404Z,16.14
2019-05-12T17:16:46.580Z,15.90
2019-05-12T17:19:15.535Z,15.77
2019-05-12T17:21:49.581Z,16.10
2019-05-12T17:24:18.959Z,15.60
2019-05-12T17:26:50.556Z,15.59
2019-05-12T17:29:24.299Z,15.30
2019-05-12T17:31:57.959Z,15.42
2019-05-12T17:34:35.271Z,15.69
2019-05-12T17:37:05.308Z,15.68
2019-05-12T17:39:39.146Z,15.65
2019-05-12T17:42:07.145Z,15.67
2019-05-12T17:44:39.075Z,15.40
2019-05-12T17:47:14.883Z,15.21
2019-05-12T17:49:43.722Z,15.06
2019-05-12T17:52:18.464Z,14.86
2019-05-12T17:54:45.495Z,14.82
2019-05-12T17:57:19.731Z,14.67
2019-05-12T17:59:48.039Z,14.60
2019-05-12T18:02:18.343Z,14.48
2019-05-12T18:04:49.883Z,14.20
2019-05-12T18:07:23.691Z,14.08
2019-05-12T18:09:56.823Z,14.05
2019-05-12T18:12:36.648Z,14.01
2019-05-12T18:15:14.672Z,13.83
2019-05-12T18:17:49.639Z,13.80
2019-05-12T18:20:16.828Z,13.83
2019-05-12T18:22:48.444Z,13.81
2019-05-12T18:25:22.003Z,13.90
2019-05-12T18:27:54.190Z,13.72
2019-05-12T18:30:24.158Z,13.69
2019-05-12T18:33:04.079Z,13.64
2019-05-12T18:35:25.585Z,13.58
2019-05-12T18:37:55.679Z,13.49
2019-05-12T18:40:28.155Z,13.28
2019-05-12T18:43:00.143Z,13.05
2019-05-12T18:45:29.954Z,12.90
2019-05-12T18:48:01.207Z,12.81
2019-05-12T18:50:34.262Z,12.75
2019-05-12T18:53:07.881Z,12.64
2019-05-12T18:55:41.305Z,12.53
2019-05-12T18:58:14.888Z,12.43
2019-05-12T19:00:44.340Z,12.35
2019-05-12T19:03:15.142Z,12.25
2019-05-12T19:05:45.574Z,12.15
2019-05-12T19:08:15.211Z,11.98
2019-05-12T19:10:48.750Z,11.91
2019-05-12T19:13:16.731Z,11.80
2019-05-12T19:15:46.665Z,11.80
2019-05-12T19:18:18.437Z,11.70
2019-05-12T19:20:50.329Z,11.61
2019-05-12T19:23:27.830Z,11.58
2019-05-12T19:25:54.249Z,11.51
2019-05-12T19:28:24.115Z,11.39
2019-05-12T19:31:00.786Z,11.40
2019-05-12T19:33:26.790Z,11.31
2019-05-12T19:36:04.528Z,11.24
2019-05-12T19:38:34.551Z,11.11
2019-05-12T19:41:06.079Z,11.06
2019-05-12T19:43:39.337Z,10.97
2019-05-12T19:46:13.629Z,10.86
2019-05-12T19:48:49.653Z,10.80
2019-05-12T19:51:24.635Z,10.79
2019-05-12T19:53:51.824Z,10.71
2019-05-12T19:56:34.608Z,10.61
2019-05-12T19:58:56.532Z,10.62
2019-05-12T20:01:32.871Z,10.61
2019-05-12T20:04:03.576Z,10.59
2019-05-12T20:06:33.749Z,10.52
2019-05-12T20:09:10.764Z,10.48
2019-05-12T20:11:39.210Z,10.41
2019-05-12T20:14:19.065Z,10.37
2019-05-12T20:16:44.916Z,10.31
2019-05-12T20:19:19.812Z,10.31
2019-05-12T20:21:48.916Z,10.28
2019-05-12T20:24:20.725Z,10.27
2019-05-12T20:26:53.951Z,10.20
2019-05-12T20:29:33.001Z,10.19
2019-05-12T20:31:55.449Z,10.11
2019-05-12T20:34:26.375Z,10.08
2019-05-12T20:36:59.157Z,10.03
2019-05-12T20:39:27.848Z,10.00
2019-05-12T20:42:00.652Z,10.02
2019-05-12T20:44:30.150Z,9.95
2019-05-12T20:47:06.443Z,9.93
2019-05-12T20:49:36.349Z,9.87
2019-05-12T20:52:09.493Z,9.78
2019-05-12T20:54:38.581Z,9.74
2019-05-12T20:57:08.748Z,9.70
2019-05-12T20:59:39.975Z,9.66
2019-05-12T21:02:11.258Z,9.60
2019-05-12T21:04:41.325Z,9.58
2019-05-12T21:07:21.217Z,9.47
2019-05-12T21:09:44.993Z,9.48
2019-05-12T21:12:16.069Z,9.41
2019-05-12T21:14:52.072Z,9.36
2019-05-12T21:17:38.966Z,9.34
2019-05-12T21:19:59.235Z,9.33
2019-05-12T21:22:34.225Z,9.33
2019-05-12T21:25:10.662Z,9.32
2019-05-12T21:27:39.812Z,9.34
2019-05-12T21:30:14.937Z,9.32
2019-05-12T21:32:56.455Z,9.34
2019-05-12T21:35:26.049Z,9.33
2019-05-12T21:38:03.944Z,9.35
2019-05-12T21:40:35.227Z,9.40
2019-05-12T21:43:07.570Z,9.36
2019-05-12T21:45:40.433Z,9.37
2019-05-12T21:48:15.245Z,9.38
2019-05-12T21:50:44.521Z,9.39
2019-05-12T21:53:20.603Z,9.42
2019-05-12T21:55:55.175Z,9.42
2019-05-12T21:58:25.127Z,9.39
2019-05-12T22:01:04.485Z,9.38
2019-05-12T22:03:33.512Z,9.36
2019-05-12T22:06:14.835Z,9.41
2019-05-12T22:08:35.431Z,9.39
2019-05-12T22:11:11.202Z,9.37
2019-05-12T22:13:37.138Z,9.34
2019-05-12T22:16:09.038Z,9.30
2019-05-12T22:18:39.615Z,9.31
2019-05-12T22:21:09.272Z,9.28
2019-05-12T22:23:44.498Z,9.23
2019-05-12T22:26:11.579Z,9.22
2019-05-12T22:28:46.715Z,9.15
2019-05-12T22:31:17.078Z,9.15
2019-05-12T22:33:52.043Z,9.11
2019-05-12T22:36:25.732Z,9.01
2019-05-12T22:38:54.331Z,8.97
2019-05-12T22:41:24.304Z,8.95
2019-05-12T22:43:55.099Z,8.90
2019-05-12T22:46:31.759Z,8.87
2019-05-12T22:48:56.585Z,8.86
2019-05-12T22:51:29.664Z,8.85
2019-05-12T22:54:08.740Z,8.76
2019-05-12T22:56:34.292Z,8.72
2019-05-12T22:59:04.764Z,8.64
2019-05-12T23:07:43.931Z,8.34
2019-05-12T23:10:14.347Z,8.17
2019-05-12T23:12:45.331Z,8.13
2019-05-12T23:15:15.854Z,8.03
2019-05-12T23:17:49.407Z,7.96
2019-05-12T23:20:18.589Z,7.92
2019-05-12T23:22:49.370Z,7.85
2019-05-12T23:25:21.475Z,7.76
2019-05-12T23:27:50.573Z,7.69
2019-05-12T23:30:24.024Z,7.65
2019-05-12T23:32:53.103Z,7.52
2019-05-12T23:35:28.261Z,7.47
2019-05-12T23:37:54.417Z,7.37
2019-05-12T23:40:23.941Z,7.33
2019-05-12T23:42:53.994Z,7.31
2019-05-12T23:45:38.412Z,7.29
2019-05-12T23:48:08.830Z,7.23
2019-05-12T23:50:39.573Z,7.18
2019-05-12T23:53:08.971Z,7.14
2019-05-12T23:55:43.651Z,7.09
2019-05-12T23:58:14.579Z,7.08
